Time;durP1;ratioP1;P1;durP2;ratioP2;P2;SDS_P1;SDS_P2;PMS_P1;PMS_P2;Temp;Humidity;BMP_temperature;BMP_pressure;BME280_temperature;BME280_humidity;BME280_pressure;Samples;Min_cycle;Max_cycle;Signal;HPM_P1;HPM_P2
2023/03/23 00:01:54;;;;;;;4.30;1.30;;;21.50;67.20;;;;;;5053886;28;20546;-69
2023/03/23 00:04:20;;;;;;;2.72;1.20;;;21.50;67.10;;;;;;5053923;28;20039;-69
2023/03/23 00:06:46;;;;;;;3.47;1.23;;;21.50;67.20;;;;;;5052949;28;20017;-69
2023/03/23 00:09:14;;;;;;;2.03;1.10;;;21.50;67.10;;;;;;5052961;28;20432;-69
2023/03/23 00:11:40;;;;;;;2.28;1.10;;;21.50;67.20;;;;;;5052914;28;20032;-69
2023/03/23 00:14:12;;;;;;;3.00;1.10;;;21.60;67.30;;;;;;5043831;28;20429;-69
2023/03/23 00:16:40;;;;;;;3.17;1.30;;;21.60;67.20;;;;;;5048509;28;20009;-69
2023/03/23 00:19:07;;;;;;;1.17;0.75;;;21.60;67.20;;;;;;5033655;28;20056;-69
2023/03/23 00:21:35;;;;;;;2.38;0.98;;;21.60;67.20;;;;;;5066015;28;20013;-69
2023/03/23 00:24:20;;;;;;;3.33;1.10;;;21.60;67.20;;;;;;5049061;28;20117;-69
2023/03/23 00:26:48;;;;;;;3.83;1.42;;;21.60;67.20;;;;;;5033511;28;20038;-69
2023/03/23 00:29:21;;;;;;;3.78;1.30;;;21.60;67.40;;;;;;5033747;28;20033;-69
2023/03/23 00:31:47;;;;;;;2.25;1.00;;;21.70;67.30;;;;;;5064401;28;20027;-69
2023/03/23 00:34:20;;;;;;;2.40;1.02;;;21.60;67.30;;;;;;5065806;28;20025;-69
2023/03/23 00:36:50;;;;;;;3.08;1.30;;;21.70;67.30;;;;;;5048558;28;20470;-69
2023/03/23 00:39:17;;;;;;;1.63;0.95;;;21.70;67.40;;;;;;5048628;28;20025;-69
2023/03/23 00:41:43;;;;;;;2.05;0.82;;;21.70;67.30;;;;;;5048729;28;20025;-69
2023/03/23 00:44:09;;;;;;;1.85;1.05;;;21.70;67.50;;;;;;5065245;28;20018;-69
2023/03/23 00:46:44;;;;;;;1.95;0.95;;;21.70;67.50;;;;;;5033139;28;20074;-69
2023/03/23 00:49:12;;;;;;;1.67;0.85;;;21.70;67.60;;;;;;5047679;28;20108;-69
2023/03/23 00:51:38;;;;;;;1.90;0.90;;;21.80;67.70;;;;;;5085059;28;20075;-69
2023/03/23 00:54:04;;;;;;;3.08;1.33;;;21.80;67.70;;;;;;5052907;28;20393;-69
2023/03/23 00:56:29;;;;;;;2.45;1.05;;;21.80;67.80;;;;;;5085488;28;20032;-69
2023/03/23 00:58:55;;;;;;;2.30;0.95;;;21.80;67.80;;;;;;5053021;28;20017;-69
2023/03/23 01:01:21;;;;;;;2.95;1.08;;;21.80;67.80;;;;;;5052622;28;20063;-70
2023/03/23 01:03:46;;;;;;;2.45;1.05;;;21.80;67.80;;;;;;5052217;28;20021;-69
2023/03/23 01:06:14;;;;;;;1.92;1.00;;;21.80;67.90;;;;;;5052468;28;20021;-69
2023/03/23 01:08:44;;;;;;;4.03;1.17;;;21.90;67.70;;;;;;5052590;28;20025;-69
2023/03/23 01:11:11;;;;;;;2.28;1.00;;;21.80;67.80;;;;;;5056589;28;20131;-69
2023/03/23 01:13:37;;;;;;;1.90;0.93;;;21.80;67.80;;;;;;5064880;28;20112;-69
2023/03/23 01:16:03;;;;;;;3.50;1.27;;;21.80;67.90;;;;;;5051878;28;20059;-69
2023/03/23 01:18:28;;;;;;;3.85;1.23;;;21.80;68.00;;;;;;5053914;28;20100;-70
2023/03/23 01:20:54;;;;;;;1.83;0.85;;;21.80;68.00;;;;;;5070138;28;20107;-70
2023/03/23 01:23:20;;;;;;;4.15;1.00;;;21.70;68.10;;;;;;5065850;28;20024;-70
2023/03/23 01:25:45;;;;;;;2.97;1.13;;;21.70;68.20;;;;;;5056077;28;20086;-70
2023/03/23 01:28:11;;;;;;;2.05;1.08;;;21.60;68.30;;;;;;5071919;28;20070;-69
2023/03/23 01:30:37;;;;;;;2.65;1.00;;;21.60;68.40;;;;;;5059055;28;20398;-69
2023/03/23 01:33:02;;;;;;;2.40;1.00;;;21.60;68.40;;;;;;5050601;28;20024;-70
2023/03/23 01:35:28;;;;;;;2.72;1.35;;;21.60;68.50;;;;;;5065090;28;20039;-70
2023/03/23 01:37:54;;;;;;;2.95;1.20;;;21.50;68.60;;;;;;5051904;28;20400;-70
2023/03/23 01:40:20;;;;;;;2.63;1.00;;;21.50;68.50;;;;;;5054964;28;20522;-70
2023/03/23 01:42:45;;;;;;;2.72;1.15;;;21.40;68.40;;;;;;5058109;28;20447;-70
2023/03/23 01:45:31;;;;;;;4.78;1.45;;;21.40;68.50;;;;;;5059916;28;20033;-70
2023/03/23 01:48:06;;;;;;;2.70;1.05;;;21.40;69.70;;;;;;5065389;28;20569;-69
2023/03/23 01:50:40;;;;;;;1.80;0.98;;;21.40;69.80;;;;;;5063935;28;20579;-69
2023/03/23 01:53:08;;;;;;;4.13;1.27;;;21.30;68.70;;;;;;5053121;28;20124;-69
2023/03/23 01:55:34;;;;;;;4.82;1.95;;;21.30;68.70;;;;;;5063734;28;20036;-69
2023/03/23 01:58:00;;;;;;;3.10;1.20;;;21.30;68.90;;;;;;5070802;28;20481;-69
2023/03/23 02:00:26;;;;;;;2.40;1.30;;;21.30;68.90;;;;;;5044921;28;20023;-69
2023/03/23 02:02:52;;;;;;;3.22;1.33;;;21.20;69.00;;;;;;5057330;28;20024;-69
2023/03/23 02:05:38;;;;;;;4.80;1.40;;;21.20;69.10;;;;;;5061413;28;20017;-69
2023/03/23 02:08:05;;;;;;;3.63;1.30;;;21.20;69.20;;;;;;5060118;28;20078;-70
2023/03/23 02:10:31;;;;;;;4.03;1.20;;;21.20;70.20;;;;;;5054062;28;20017;-70
2023/03/23 02:13:00;;;;;;;5.18;1.10;;;21.20;69.30;;;;;;5071249;28;20397;-70
2023/03/23 02:15:46;;;;;;;4.72;0.93;;;21.10;69.30;;;;;;5065836;28;20054;-70
2023/03/23 02:18:43;;;;;;;1.83;0.90;;;21.10;69.60;;;;;;5054906;28;20012;-69
2023/03/23 02:21:21;;;;;;;5.32;1.02;;;21.10;69.60;;;;;;5069936;28;20025;-69
2023/03/23 02:23:50;;;;;;;4.00;0.90;;;21.00;69.50;;;;;;5053550;28;20079;-69
2023/03/23 02:26:47;;;;;;;2.85;1.30;;;21.00;69.50;;;;;;5053460;28;20103;-69
2023/03/23 02:29:23;;;;;;;3.13;1.08;;;20.90;69.50;;;;;;5069607;28;20027;-69
2023/03/23 02:32:17;;;;;;;5.97;1.20;;;20.90;69.60;;;;;;5061826;28;20036;-69
2023/03/23 02:34:49;;;;;;;2.15;0.60;;;20.90;69.70;;;;;;5050461;28;20033;-69
2023/03/23 02:37:19;;;;;;;3.00;1.10;;;20.90;69.70;;;;;;5049604;28;20009;-69
2023/03/23 02:39:47;;;;;;;3.58;1.25;;;20.90;69.80;;;;;;5051921;28;20409;-69
2023/03/23 02:42:17;;;;;;;2.70;0.93;;;20.80;69.80;;;;;;5060780;28;20027;-69
2023/03/23 02:44:44;;;;;;;4.45;1.30;;;20.80;70.00;;;;;;5048385;28;20071;-70
2023/03/23 02:47:13;;;;;;;3.00;1.08;;;20.80;70.00;;;;;;5049474;28;20017;-70
2023/03/23 02:49:40;;;;;;;3.13;1.17;;;20.70;70.90;;;;;;5050206;28;20473;-70
2023/03/23 02:52:09;;;;;;;2.63;1.10;;;20.70;70.00;;;;;;5049660;28;20041;-70
2023/03/23 02:54:34;;;;;;;1.90;0.90;;;20.70;70.10;;;;;;5050258;28;20045;-70
2023/03/23 02:57:01;;;;;;;1.73;0.80;;;20.70;70.20;;;;;;5064969;28;20066;-70
2023/03/23 02:59:26;;;;;;;2.13;0.98;;;20.60;70.20;;;;;;5053444;28;20550;-70
2023/03/23 03:02:14;;;;;;;3.65;0.98;;;20.60;70.40;;;;;;5069975;28;20108;-70
2023/03/23 03:04:40;;;;;;;4.10;0.95;;;20.60;70.30;;;;;;5081081;28;20092;-70
2023/03/23 03:07:59;;;;;;;3.42;1.10;;;20.50;70.30;;;;;;5053542;28;20052;-70
2023/03/23 03:10:46;;;;;;;1.63;0.90;;;20.50;70.50;;;;;;5053237;28;20025;-70
2023/03/23 03:13:38;;;;;;;4.72;1.10;;;20.50;70.60;;;;;;5055003;28;20021;-70
2023/03/23 03:16:08;;;;;;;2.35;1.17;;;20.50;70.60;;;;;;5063165;28;20028;-70
2023/03/23 03:18:43;;;;;;;1.70;0.90;;;20.50;70.70;;;;;;5053657;28;20020;-70
2023/03/23 03:21:10;;;;;;;3.25;1.08;;;20.50;70.70;;;;;;5053180;28;20017;-70
2023/03/23 03:23:37;;;;;;;3.25;1.08;;;20.40;70.70;;;;;;5053360;28;20017;-70
2023/03/23 03:26:04;;;;;;;4.93;1.50;;;20.40;70.70;;;;;;5052959;28;20040;-70
2023/03/23 03:28:30;;;;;;;1.10;0.80;;;20.40;70.80;;;;;;5066733;28;20040;-70
2023/03/23 03:30:57;;;;;;;2.42;1.05;;;20.40;70.80;;;;;;5073112;28;20484;-70
2023/03/23 03:33:26;;;;;;;4.22;1.25;;;20.40;70.80;;;;;;5072928;28;20094;-70
2023/03/23 03:35:55;;;;;;;3.50;1.10;;;20.30;70.90;;;;;;5039736;28;20039;-70
2023/03/23 03:38:21;;;;;;;4.43;1.50;;;20.40;70.90;;;;;;5056286;28;20009;-70
2023/03/23 03:40:46;;;;;;;1.90;0.80;;;20.30;70.90;;;;;;5056413;28;20093;-70
2023/03/23 03:43:12;;;;;;;2.78;0.90;;;20.30;70.90;;;;;;5073936;28;20016;-70
2023/03/23 03:45:38;;;;;;;1.98;1.20;;;20.30;71.00;;;;;;5072823;28;20104;-70
2023/03/23 03:48:03;;;;;;;1.27;0.80;;;20.30;71.10;;;;;;5067104;28;20035;-70
2023/03/23 03:50:29;;;;;;;1.38;0.75;;;20.20;71.00;;;;;;5053987;28;20036;-70
2023/03/23 03:52:55;;;;;;;1.77;0.90;;;20.20;71.00;;;;;;5071144;28;20099;-70
2023/03/23 03:55:21;;;;;;;2.78;1.10;;;20.20;71.10;;;;;;5073715;28;20041;-70
2023/03/23 03:57:47;;;;;;;1.55;0.77;;;20.20;71.10;;;;;;5072815;28;20373;-70
2023/03/23 04:00:14;;;;;;;1.52;0.88;;;20.20;71.10;;;;;;5072447;28;20111;-70
2023/03/23 04:02:47;;;;;;;3.30;1.10;;;20.20;71.20;;;;;;5073835;28;20024;-70
2023/03/23 04:05:13;;;;;;;3.17;1.05;;;20.20;71.20;;;;;;5072496;28;20025;-70
2023/03/23 04:07:39;;;;;;;1.65;0.82;;;20.20;71.20;;;;;;5072337;28;20016;-70
2023/03/23 04:10:09;;;;;;;1.95;0.88;;;20.20;71.30;;;;;;5073293;28;20126;-70
2023/03/23 04:12:35;;;;;;;2.22;0.90;;;20.10;71.20;;;;;;5073380;28;20039;-70
2023/03/23 04:15:01;;;;;;;1.70;0.80;;;20.10;71.30;;;;;;5054386;28;20020;-70
2023/03/23 04:17:27;;;;;;;1.92;0.80;;;20.10;71.30;;;;;;5053727;28;20078;-70
2023/03/23 04:19:56;;;;;;;2.30;1.00;;;20.10;71.30;;;;;;5053224;28;20036;-70
2023/03/23 04:22:29;;;;;;;3.72;1.00;;;20.10;71.30;;;;;;5052313;28;20032;-70
2023/03/23 04:24:58;;;;;;;1.30;0.90;;;20.00;71.30;;;;;;5051946;28;20055;-70
2023/03/23 04:27:24;;;;;;;2.88;1.15;;;20.00;71.30;;;;;;5052016;28;20045;-70
2023/03/23 04:29:50;;;;;;;2.38;1.10;;;20.00;71.40;;;;;;5053441;28;20020;-70
2023/03/23 04:32:17;;;;;;;2.65;1.08;;;20.00;71.40;;;;;;5052918;28;20036;-70
2023/03/23 04:34:44;;;;;;;3.78;1.15;;;20.00;71.40;;;;;;5053467;28;20147;-70
2023/03/23 04:37:09;;;;;;;2.25;0.90;;;20.00;71.50;;;;;;5052067;28;20493;-70
2023/03/23 04:39:35;;;;;;;1.45;0.90;;;20.00;71.50;;;;;;5051667;28;20025;-70
2023/03/23 04:42:01;;;;;;;2.78;0.90;;;19.90;71.50;;;;;;5052928;28;20013;-70
2023/03/23 04:44:27;;;;;;;1.35;0.90;;;20.00;71.60;;;;;;5051748;28;20546;-70
2023/03/23 04:46:53;;;;;;;1.85;0.75;;;19.90;71.50;;;;;;5070055;28;20107;-70
2023/03/23 04:49:22;;;;;;;2.08;1.02;;;19.90;71.60;;;;;;5055418;28;20029;-70
2023/03/23 04:51:48;;;;;;;2.60;1.10;;;19.90;71.60;;;;;;5051770;28;20128;-70
2023/03/23 04:54:14;;;;;;;2.55;1.05;;;19.90;71.70;;;;;;5052427;28;20396;-70
2023/03/23 04:56:41;;;;;;;2.40;1.00;;;19.90;71.70;;;;;;5051606;28;20019;-70
2023/03/23 04:59:07;;;;;;;2.67;0.85;;;19.90;71.70;;;;;;5051191;28;20025;-70
2023/03/23 05:01:34;;;;;;;2.25;1.00;;;19.90;71.70;;;;;;5051332;28;20088;-70
2023/03/23 05:04:00;;;;;;;2.45;1.00;;;19.80;71.80;;;;;;5052574;28;20087;-70
2023/03/23 05:06:25;;;;;;;2.45;1.23;;;19.80;71.80;;;;;;5084878;28;20021;-70
2023/03/23 05:08:51;;;;;;;1.33;1.00;;;19.80;71.90;;;;;;5034380;28;20401;-70
2023/03/23 05:11:17;;;;;;;2.58;0.73;;;19.80;71.80;;;;;;5051016;28;20492;-70
2023/03/23 05:13:44;;;;;;;3.03;1.00;;;19.80;72.00;;;;;;5055252;28;20103;-70
2023/03/23 05:16:09;;;;;;;3.65;1.00;;;19.70;72.00;;;;;;5072280;28;20070;-70
2023/03/23 05:18:35;;;;;;;3.22;1.02;;;19.70;72.00;;;;;;5070743;28;20016;-70
2023/03/23 05:21:04;;;;;;;2.95;1.20;;;19.70;72.10;;;;;;5072215;28;20100;-70
2023/03/23 05:23:30;;;;;;;1.80;1.00;;;19.70;72.10;;;;;;5054188;28;20047;-70
2023/03/23 05:26:00;;;;;;;2.97;1.20;;;19.70;72.20;;;;;;5070707;28;20035;-70
2023/03/23 05:28:26;;;;;;;3.53;1.00;;;19.70;72.20;;;;;;5054449;28;20511;-70
2023/03/23 05:30:52;;;;;;;4.88;1.63;;;19.70;72.20;;;;;;5063432;28;20036;-70
2023/03/23 05:33:17;;;;;;;2.97;0.95;;;19.70;72.30;;;;;;5061545;28;20024;-70
2023/03/23 05:35:44;;;;;;;2.53;1.10;;;19.70;72.30;;;;;;5051992;28;20026;-70
2023/03/23 05:38:11;;;;;;;2.38;1.02;;;19.70;72.30;;;;;;5050699;28;20028;-70
2023/03/23 05:40:37;;;;;;;4.03;0.88;;;19.60;72.30;;;;;;5051967;28;20009;-70
2023/03/23 05:43:03;;;;;;;3.95;1.08;;;19.60;72.40;;;;;;5071588;28;20016;-70
2023/03/23 05:45:28;;;;;;;3.78;0.93;;;19.60;72.40;;;;;;5071825;28;20021;-70
2023/03/23 05:47:54;;;;;;;2.88;0.90;;;19.60;72.40;;;;;;5063404;28;20033;-70
2023/03/23 05:50:20;;;;;;;2.83;0.80;;;19.60;72.50;;;;;;5051749;28;20029;-70
2023/03/23 05:52:46;;;;;;;3.65;1.08;;;19.50;72.50;;;;;;5059609;28;20124;-70
2023/03/23 05:55:12;;;;;;;1.83;1.02;;;19.60;72.50;;;;;;5051719;28;20536;-70
2023/03/23 05:57:38;;;;;;;2.50;1.20;;;19.50;72.60;;;;;;5050423;28;20017;-70
2023/03/23 06:03:00;;;;;;;4.30;0.90;;;19.50;72.60;;;;;;5048365;28;20047;-70
2023/03/23 06:05:26;;;;;;;3.10;1.27;;;19.50;72.60;;;;;;5051221;28;20017;-70
2023/03/23 06:07:53;;;;;;;2.65;1.10;;;19.50;72.70;;;;;;5064395;28;20397;-70
2023/03/23 06:10:19;;;;;;;1.75;0.70;;;19.50;72.80;;;;;;5071091;28;20015;-70
2023/03/23 06:12:44;;;;;;;2.50;0.90;;;19.50;72.80;;;;;;5069699;28;20032;-70
2023/03/23 06:15:10;;;;;;;4.20;0.93;;;19.50;72.90;;;;;;5051391;28;20047;-69
2023/03/23 06:17:36;;;;;;;3.28;1.10;;;19.50;72.90;;;;;;5065307;28;20049;-69
2023/03/23 06:20:07;;;;;;;2.30;1.00;;;19.50;72.50;;;;;;5054905;28;20516;-69
2023/03/23 06:22:33;;;;;;;4.35;1.10;;;19.40;72.00;;;;;;5053370;28;20466;-69
2023/03/23 06:24:58;;;;;;;5.47;1.02;;;19.40;72.40;;;;;;5070812;28;20476;-69
2023/03/23 06:27:24;;;;;;;3.38;1.10;;;19.40;73.20;;;;;;5067300;28;20029;-69
2023/03/23 06:29:50;;;;;;;2.63;1.10;;;19.40;72.10;;;;;;5065468;28;20048;-69
2023/03/23 06:32:15;;;;;;;3.72;1.40;;;19.30;71.90;;;;;;5066935;28;20551;-69
2023/03/23 06:34:44;;;;;;;4.25;1.45;;;19.30;72.90;;;;;;5060389;28;20052;-69
2023/03/23 06:37:11;;;;;;;3.83;1.10;;;19.30;71.80;;;;;;5059911;28;20032;-69
2023/03/23 06:39:39;;;;;;;4.22;1.33;;;19.30;71.70;;;;;;5053617;28;20051;-69
2023/03/23 06:42:08;;;;;;;2.97;1.17;;;19.30;71.60;;;;;;5065129;28;20023;-69
2023/03/23 06:44:34;;;;;;;3.72;1.60;;;19.30;71.60;;;;;;5063162;28;20041;-69
2023/03/23 06:47:00;;;;;;;1.92;0.77;;;19.30;71.60;;;;;;5056499;28;20405;-69
2023/03/23 06:49:25;;;;;;;4.03;1.60;;;19.30;72.50;;;;;;5052982;28;20017;-69
2023/03/23 06:51:51;;;;;;;4.05;1.40;;;19.20;71.20;;;;;;5054492;28;20408;-69
2023/03/23 06:54:17;;;;;;;3.38;1.23;;;19.20;71.10;;;;;;5053983;28;20532;-69
2023/03/23 06:56:42;;;;;;;3.83;1.40;;;19.20;71.10;;;;;;5056773;28;20025;-69
2023/03/23 06:59:10;;;;;;;4.30;1.30;;;19.20;71.00;;;;;;5054549;28;20021;-69
2023/03/23 07:01:36;;;;;;;4.53;1.67;;;19.20;70.70;;;;;;5054181;28;20017;-69
2023/03/23 07:04:02;;;;;;;6.10;1.63;;;19.20;70.60;;;;;;5054783;28;20220;-69
2023/03/23 07:06:27;;;;;;;5.05;1.67;;;19.20;70.70;;;;;;5036538;28;20021;-69
2023/03/23 07:08:53;;;;;;;4.88;1.30;;;19.10;70.50;;;;;;5053399;28;20420;-69
2023/03/23 07:11:19;;;;;;;4.75;1.73;;;19.10;70.30;;;;;;5053697;28;20488;-69
2023/03/23 07:13:45;;;;;;;3.83;1.83;;;19.10;70.20;;;;;;5053238;28;20544;-69
2023/03/23 07:16:11;;;;;;;5.07;1.70;;;19.10;70.20;;;;;;5054359;28;20040;-69
2023/03/23 07:18:36;;;;;;;2.90;1.30;;;19.10;70.20;;;;;;5054367;28;20043;-69
2023/03/23 07:21:02;;;;;;;3.35;1.60;;;19.10;70.00;;;;;;5052384;28;20017;-69
2023/03/23 07:23:29;;;;;;;6.10;1.60;;;19.10;70.00;;;;;;5053029;28;20484;-69
2023/03/23 07:25:55;;;;;;;5.78;1.60;;;19.10;70.00;;;;;;5051789;28;20047;-69
2023/03/23 07:28:21;;;;;;;5.05;1.60;;;19.00;69.90;;;;;;5052924;28;20373;-69
2023/03/23 07:30:46;;;;;;;4.78;1.52;;;19.00;69.80;;;;;;5054746;28;20035;-69
2023/03/23 07:33:12;;;;;;;5.82;1.83;;;19.00;69.80;;;;;;5053279;28;20400;-69
2023/03/23 07:35:38;;;;;;;4.60;1.73;;;19.00;69.90;;;;;;5053338;28;20067;-69
2023/03/23 07:38:05;;;;;;;4.05;1.50;;;19.00;70.00;;;;;;5036978;28;20025;-69
2023/03/23 07:40:33;;;;;;;5.38;1.70;;;19.00;69.90;;;;;;5054681;28;20095;-69
2023/03/23 07:42:58;;;;;;;5.25;1.77;;;19.00;69.90;;;;;;5053691;28;20499;-69
2023/03/23 07:45:24;;;;;;;5.65;1.50;;;19.00;70.00;;;;;;5036772;28;20033;-69
2023/03/23 07:47:50;;;;;;;4.95;1.55;;;19.00;70.00;;;;;;5036324;28;20416;-69
2023/03/23 07:50:17;;;;;;;4.65;1.73;;;18.90;69.90;;;;;;5052398;28;20028;-69
2023/03/23 07:52:43;;;;;;;4.55;1.75;;;18.90;69.90;;;;;;5054236;28;20076;-69
2023/03/23 07:55:17;;;;;;;3.90;1.30;;;18.90;69.90;;;;;;5053161;28;20025;-69
2023/03/23 07:57:43;;;;;;;3.80;1.88;;;18.90;70.00;;;;;;5053007;28;20572;-69
2023/03/23 08:00:12;;;;;;;4.70;1.52;;;18.90;70.00;;;;;;5053107;28;20035;-69
2023/03/23 08:02:38;;;;;;;4.93;1.85;;;18.90;70.00;;;;;;5053793;28;20013;-69
2023/03/23 08:05:04;;;;;;;6.55;1.67;;;18.90;70.00;;;;;;5054221;28;20021;-69
2023/03/23 08:07:30;;;;;;;4.25;1.65;;;18.90;70.00;;;;;;5054294;28;20088;-69
2023/03/23 08:09:56;;;;;;;5.55;1.75;;;18.90;70.00;;;;;;5052892;28;20501;-69
2023/03/23 08:12:21;;;;;;;6.78;2.05;;;18.90;70.00;;;;;;5053683;28;20108;-69
2023/03/23 08:14:48;;;;;;;4.00;1.80;;;18.90;70.00;;;;;;5037055;28;20052;-69
2023/03/23 08:17:14;;;;;;;4.38;1.58;;;18.80;70.00;;;;;;5065660;28;20083;-69
2023/03/23 08:19:39;;;;;;;5.80;2.10;;;18.80;71.00;;;;;;5033935;28;20022;-69
2023/03/23 08:22:05;;;;;;;3.72;1.40;;;18.80;70.00;;;;;;5065960;28;20029;-69
2023/03/23 08:24:32;;;;;;;4.88;1.60;;;18.80;70.00;;;;;;5065969;28;20026;-69
2023/03/23 08:26:58;;;;;;;3.88;1.77;;;18.80;70.00;;;;;;5065770;28;20017;-69
2023/03/23 08:29:24;;;;;;;4.35;1.45;;;18.80;70.00;;;;;;5032505;28;20025;-69
2023/03/23 08:31:50;;;;;;;5.18;1.58;;;18.70;69.90;;;;;;5033356;28;20032;-69
2023/03/23 08:34:15;;;;;;;3.03;1.40;;;18.70;70.00;;;;;;5033588;28;20056;-69
2023/03/23 08:36:43;;;;;;;5.55;1.88;;;18.80;70.00;;;;;;5065648;28;20029;-69
2023/03/23 08:39:09;;;;;;;5.63;2.15;;;18.80;70.00;;;;;;5033688;28;20049;-69
2023/03/23 08:41:35;;;;;;;5.72;1.85;;;18.70;70.00;;;;;;5065404;28;20531;-69
2023/03/23 08:44:01;;;;;;;4.88;1.77;;;18.70;70.00;;;;;;5065481;28;20441;-69
2023/03/23 08:46:27;;;;;;;4.43;1.65;;;18.70;70.00;;;;;;5033146;28;20029;-69
2023/03/23 08:48:54;;;;;;;6.63;2.00;;;18.70;70.00;;;;;;5045270;28;20039;-69
2023/03/23 08:51:19;;;;;;;5.10;1.70;;;18.70;69.90;;;;;;5051797;28;20473;-69
2023/03/23 08:53:45;;;;;;;4.65;1.60;;;18.70;70.00;;;;;;5051955;28;20135;-69
2023/03/23 08:56:12;;;;;;;3.80;1.55;;;18.70;70.00;;;;;;5051862;28;20053;-69
2023/03/23 08:58:38;;;;;;;4.43;1.73;;;18.70;70.00;;;;;;5051882;28;20108;-69
2023/03/23 09:01:06;;;;;;;4.30;1.83;;;18.70;70.00;;;;;;5050932;28;20025;-69
2023/03/23 09:03:32;;;;;;;5.40;1.90;;;18.70;70.00;;;;;;5051739;28;20017;-69
2023/03/23 09:06:02;;;;;;;5.45;2.17;;;18.60;69.90;;;;;;5051622;28;20036;-69
2023/03/23 09:08:28;;;;;;;5.68;2.00;;;18.60;69.90;;;;;;5051734;28;20055;-69
2023/03/23 09:10:57;;;;;;;4.30;1.42;;;18.60;69.90;;;;;;5051679;28;20074;-69
2023/03/23 09:13:23;;;;;;;3.50;1.48;;;18.60;69.90;;;;;;5048838;28;20393;-69
2023/03/23 09:15:49;;;;;;;5.35;1.88;;;18.60;69.90;;;;;;5032645;28;20032;-69
2023/03/23 09:18:15;;;;;;;6.13;2.05;;;18.60;70.00;;;;;;5031535;28;20107;-69
2023/03/23 09:20:41;;;;;;;4.93;1.80;;;18.60;69.90;;;;;;5032677;28;20058;-69
2023/03/23 09:23:07;;;;;;;4.60;1.67;;;18.60;69.80;;;;;;5032646;28;20049;-69
2023/03/23 09:25:33;;;;;;;3.35;1.48;;;18.60;69.90;;;;;;5065029;28;20075;-69
2023/03/23 09:27:59;;;;;;;4.10;1.58;;;18.60;69.90;;;;;;5032329;28;20037;-69
2023/03/23 09:30:27;;;;;;;4.13;1.90;;;18.60;69.90;;;;;;5048096;28;20405;-69
2023/03/23 09:32:53;;;;;;;5.72;1.70;;;18.50;69.80;;;;;;5064468;28;20036;-69
2023/03/23 09:35:21;;;;;;;3.38;1.55;;;18.60;69.90;;;;;;5064449;28;20025;-69
2023/03/23 09:37:46;;;;;;;3.72;1.65;;;18.60;69.90;;;;;;5047526;28;20177;-69
2023/03/23 09:40:16;;;;;;;5.55;1.80;;;18.50;69.70;;;;;;5032694;28;20121;-69
2023/03/23 09:42:48;;;;;;;4.07;1.55;;;18.50;69.80;;;;;;5063767;28;20036;-69
2023/03/23 09:45:29;;;;;;;5.63;1.73;;;18.50;69.80;;;;;;5063766;28;20025;-69
2023/03/23 09:48:32;;;;;;;2.92;1.48;;;18.50;69.80;;;;;;5068393;28;20049;-69
2023/03/23 09:51:09;;;;;;;6.85;1.80;;;18.50;69.80;;;;;;5050907;28;20559;-69
2023/03/23 09:53:38;;;;;;;4.97;1.65;;;18.50;69.80;;;;;;5051169;28;20036;-69
2023/03/23 09:56:10;;;;;;;5.22;1.65;;;18.50;69.80;;;;;;5051015;28;20541;-69
2023/03/23 09:58:51;;;;;;;5.75;2.08;;;18.50;69.80;;;;;;5050812;28;20108;-69
2023/03/23 10:01:40;;;;;;;3.05;1.45;;;18.50;69.80;;;;;;5050966;28;20021;-69
2023/03/23 10:04:15;;;;;;;5.13;1.98;;;18.50;69.90;;;;;;5051082;28;20103;-69
2023/03/23 10:06:40;;;;;;;4.93;1.85;;;18.40;69.70;;;;;;5051016;28;20159;-69
2023/03/23 10:09:09;;;;;;;5.60;1.90;;;18.50;69.80;;;;;;5052012;28;20460;-69
2023/03/23 10:11:49;;;;;;;4.20;1.70;;;18.50;69.80;;;;;;5050685;28;20104;-69
2023/03/23 10:14:47;;;;;;;4.55;2.00;;;18.40;69.70;;;;;;5054262;28;20025;-68
2023/03/23 10:17:21;;;;;;;3.47;1.60;;;18.40;69.70;;;;;;5055857;28;20048;-68
2023/03/23 10:19:54;;;;;;;5.32;1.60;;;18.40;69.70;;;;;;5055018;28;20051;-68
2023/03/23 10:22:32;;;;;;;4.60;1.77;;;18.50;69.80;;;;;;5054992;28;20017;-68
2023/03/23 10:25:14;;;;;;;4.40;1.70;;;18.40;69.70;;;;;;5054941;28;20028;-68
2023/03/23 10:28:07;;;;;;;3.80;1.63;;;18.40;69.70;;;;;;5054601;28;20040;-68
2023/03/23 10:30:56;;;;;;;4.43;1.83;;;18.40;69.70;;;;;;5054783;28;20017;-68
2023/03/23 10:33:42;;;;;;;4.47;1.77;;;18.40;69.70;;;;;;5054601;28;20129;-68
2023/03/23 10:36:19;;;;;;;6.45;1.90;;;18.40;69.70;;;;;;5055990;28;20025;-68
2023/03/23 10:39:09;;;;;;;3.08;1.40;;;18.40;69.70;;;;;;5054739;28;20054;-68
2023/03/23 10:41:34;;;;;;;2.97;1.40;;;18.40;69.70;;;;;;5054439;28;20088;-68
2023/03/23 10:44:01;;;;;;;5.15;1.90;;;18.40;69.70;;;;;;5055561;28;20044;-68
2023/03/23 10:46:39;;;;;;;5.68;1.67;;;18.40;69.70;;;;;;5054552;28;20534;-68
2023/03/23 10:49:11;;;;;;;4.43;1.83;;;18.40;69.70;;;;;;5055428;28;20039;-68
2023/03/23 10:51:40;;;;;;;4.95;1.80;;;18.40;69.70;;;;;;5054153;28;20047;-68
2023/03/23 10:54:05;;;;;;;3.45;1.48;;;18.40;69.70;;;;;;5037370;28;20489;-68
2023/03/23 10:56:43;;;;;;;3.65;1.65;;;18.40;69.70;;;;;;5054313;28;20096;-68
2023/03/23 10:59:14;;;;;;;3.47;1.58;;;18.40;69.70;;;;;;5054224;28;20021;-68
2023/03/23 11:01:43;;;;;;;4.60;1.48;;;18.40;69.70;;;;;;5054294;28;20041;-68
2023/03/23 11:04:13;;;;;;;5.22;2.15;;;18.30;69.60;;;;;;5054018;28;20528;-68
2023/03/23 11:06:42;;;;;;;5.13;1.50;;;18.30;69.60;;;;;;5054196;28;20029;-68
2023/03/23 11:09:16;;;;;;;5.60;1.70;;;18.40;69.60;;;;;;5053905;28;20569;-68
2023/03/23 11:11:46;;;;;;;5.40;1.70;;;18.40;69.60;;;;;;5053859;28;20048;-68
2023/03/23 11:14:29;;;;;;;3.80;1.77;;;18.30;69.50;;;;;;5043148;28;20121;-68
2023/03/23 11:16:57;;;;;;;5.10;2.08;;;18.30;69.50;;;;;;5035305;28;20140;-68
2023/03/23 11:19:36;;;;;;;5.95;1.73;;;18.30;69.50;;;;;;5067228;28;20057;-68
2023/03/23 11:22:05;;;;;;;4.63;1.60;;;18.30;69.50;;;;;;5065232;28;20040;-68
2023/03/23 11:24:42;;;;;;;3.55;1.45;;;18.30;69.50;;;;;;5033758;28;20436;-68
2023/03/23 11:27:08;;;;;;;3.45;1.50;;;18.30;69.50;;;;;;5049815;28;20132;-68
2023/03/23 11:29:34;;;;;;;4.05;1.60;;;18.30;69.50;;;;;;5066720;28;20025;-68
2023/03/23 11:32:00;;;;;;;4.03;1.48;;;18.30;69.50;;;;;;5050213;28;20061;-68
2023/03/23 11:34:43;;;;;;;5.53;1.67;;;18.30;69.50;;;;;;5034782;28;20103;-68
2023/03/23 11:37:16;;;;;;;3.45;1.45;;;18.30;69.50;;;;;;5048213;28;20485;-68
2023/03/23 11:39:59;;;;;;;3.58;1.55;;;18.30;69.50;;;;;;5065739;28;20025;-68
2023/03/23 11:42:32;;;;;;;4.85;1.83;;;18.30;69.60;;;;;;5034635;28;20018;-68
2023/03/23 11:45:17;;;;;;;;;;;18.30;69.50;;;;;;5065563;28;20022;-68
2023/03/23 11:48:00;;;;;;;4.55;2.08;;;18.20;69.50;;;;;;5036930;28;19913;-68
2023/03/23 11:50:32;;;;;;;5.00;1.80;;;18.30;69.60;;;;;;5053452;28;20086;-68
2023/03/23 11:53:13;;;;;;;3.88;1.60;;;18.30;69.60;;;;;;5052883;28;20045;-68
2023/03/23 11:55:47;;;;;;;5.07;2.17;;;18.30;69.60;;;;;;5054387;28;20056;-68
2023/03/23 11:58:15;;;;;;;4.05;1.63;;;18.20;69.50;;;;;;5054295;28;20025;-68
2023/03/23 12:00:50;;;;;;;6.35;1.75;;;18.20;69.50;;;;;;5052931;28;20021;-68
2023/03/23 12:03:40;;;;;;;4.38;1.60;;;18.30;69.60;;;;;;5036433;28;20029;-68
2023/03/23 12:06:07;;;;;;;3.28;1.48;;;18.20;69.50;;;;;;5053272;28;20048;-68
2023/03/23 12:08:46;;;;;;;6.95;1.92;;;18.20;69.60;;;;;;5052742;28;20099;-68
2023/03/23 12:11:28;;;;;;;3.75;1.63;;;18.20;69.50;;;;;;5052768;28;20049;-68
2023/03/23 12:14:27;;;;;;;3.58;1.77;;;18.30;69.50;;;;;;5044556;28;20075;-68
2023/03/23 12:17:11;;;;;;;5.13;1.95;;;18.30;69.50;;;;;;5060018;28;20065;-68
2023/03/23 12:20:14;;;;;;;2.92;1.33;;;18.20;69.60;;;;;;5034058;28;20022;-68
2023/03/23 12:22:46;;;;;;;3.38;1.88;;;18.20;69.50;;;;;;5063338;28;20029;-68
2023/03/23 12:25:31;;;;;;;4.83;1.60;;;18.20;69.60;;;;;;5033833;28;20108;-68
2023/03/23 12:28:26;;;;;;;4.25;2.03;;;18.20;69.60;;;;;;5065891;28;20029;-68
2023/03/23 12:31:16;;;;;;;4.88;1.50;;;18.20;69.60;;;;;;5061041;28;20029;-68
2023/03/23 12:34:34;;;;;;;7.40;1.45;;;18.20;69.60;;;;;;5033665;28;20053;-68
2023/03/23 12:37:08;;;;;;;4.25;1.92;;;18.20;69.60;;;;;;4991561;28;20100;-68
2023/03/23 12:40:03;;;;;;;3.92;1.25;;;18.20;69.60;;;;;;4992303;28;20022;-68
2023/03/23 12:42:29;;;;;;;3.85;1.27;;;18.20;69.60;;;;;;4975596;28;20446;-68
2023/03/23 12:45:36;;;;;;;5.10;1.60;;;18.20;69.60;;;;;;4992071;28;20034;-68
2023/03/23 12:48:06;;;;;;;4.47;1.60;;;18.20;69.60;;;;;;4996322;28;20054;-68
2023/03/23 12:51:06;;;;;;;4.38;1.45;;;18.20;69.60;;;;;;5011547;28;20022;-68
2023/03/23 12:53:58;;;;;;;3.47;1.73;;;18.20;69.60;;;;;;4985711;28;20427;-68
2023/03/23 12:56:30;;;;;;;4.60;1.77;;;18.20;69.60;;;;;;4972517;28;20034;-68
2023/03/23 12:59:21;;;;;;;4.70;1.42;;;18.20;69.60;;;;;;4972158;28;20039;-68
2023/03/23 13:02:02;;;;;;;6.07;1.70;;;18.20;69.60;;;;;;4946948;29;20393;-68
2023/03/23 13:04:32;;;;;;;3.53;1.35;;;18.20;69.60;;;;;;4949655;29;20046;-68
2023/03/23 13:06:57;;;;;;;4.40;1.50;;;18.10;69.50;;;;;;4965255;28;20046;-68
2023/03/23 13:09:38;;;;;;;4.85;1.42;;;18.20;69.60;;;;;;4933713;29;20043;-68